createdAt,value
2022-12-12T08:56:37.917Z,11.85
2022-12-12T09:03:47.804Z,12.13
2022-12-12T09:06:50.276Z,12.00
2022-12-12T09:09:52.725Z,12.20
2022-12-12T09:12:55.414Z,11.18
2022-12-12T09:15:58.189Z,14.25
2022-12-12T09:19:02.023Z,10.95
2022-12-12T09:22:04.791Z,10.75
2022-12-12T09:25:07.762Z,7.65
2022-12-12T09:28:11.536Z,8.30
2022-12-12T09:31:14.281Z,9.27
2022-12-12T09:34:18.093Z,9.43
2022-12-12T09:37:20.701Z,8.20
2022-12-12T09:40:32.192Z,10.50
2022-12-12T09:43:43.033Z,9.18
2022-12-12T09:46:48.621Z,7.57
2022-12-12T09:49:56.907Z,8.02
2022-12-12T09:53:02.356Z,7.07
2022-12-12T09:56:11.426Z,6.45
2022-12-12T09:59:20.117Z,4.60
2022-12-12T10:02:41.026Z,7.28
2022-12-12T10:06:13.394Z,7.82
2022-12-12T10:09:40.569Z,5.87
2022-12-12T10:12:43.285Z,8.27
2022-12-12T10:15:49.155Z,8.95
2022-12-12T10:18:54.290Z,7.80
2022-12-12T10:22:03.163Z,6.80
2022-12-12T10:25:20.031Z,7.72
2022-12-12T10:28:25.056Z,6.30
2022-12-12T10:31:41.299Z,8.35
2022-12-12T10:34:58.376Z,7.97
2022-12-12T10:38:18.177Z,9.98
2022-12-12T10:41:29.003Z,7.25
2022-12-12T10:44:57.752Z,5.03
2022-12-12T10:48:00.220Z,7.32
2022-12-12T10:51:05.354Z,9.95
2022-12-12T10:54:16.653Z,6.28
2022-12-12T10:57:22.336Z,9.45
2022-12-12T11:00:27.509Z,7.13
2022-12-12T11:03:34.217Z,8.75
2022-12-12T11:06:39.336Z,7.95
2022-12-12T11:09:46.495Z,6.78
2022-12-12T11:12:56.233Z,5.13
2022-12-12T11:16:00.880Z,5.40
2022-12-12T11:19:08.125Z,8.95
2022-12-12T11:22:13.730Z,7.60
2022-12-12T11:25:26.611Z,9.32
2022-12-12T11:28:34.370Z,9.65
2022-12-12T11:31:36.889Z,6.57
2022-12-12T11:34:44.853Z,8.23
2022-12-12T11:37:50.474Z,8.20
2022-12-12T11:41:00.405Z,9.65
2022-12-12T11:44:02.847Z,10.45
2022-12-12T11:47:23.100Z,7.38
2022-12-12T11:50:27.644Z,6.13
2022-12-12T11:53:30.945Z,6.15
2022-12-12T11:56:42.301Z,9.18
2022-12-12T12:00:03.616Z,7.70
2022-12-12T12:03:23.460Z,8.00
2022-12-12T12:06:38.782Z,7.00
2022-12-12T12:09:47.183Z,7.45
2022-12-12T12:13:04.066Z,6.68
2022-12-12T12:16:17.195Z,10.73
2022-12-12T12:19:24.631Z,8.55
2022-12-12T12:22:35.747Z,7.28
2022-12-12T12:25:45.070Z,7.47
2022-12-12T12:29:18.933Z,5.72
2022-12-12T12:32:29.403Z,8.77
2022-12-12T12:35:33.491Z,7.45
2022-12-12T12:38:51.244Z,7.00
2022-12-12T12:42:06.847Z,8.27
2022-12-12T12:45:20.028Z,7.85
2022-12-12T12:48:27.941Z,7.70
2022-12-12T12:51:35.898Z,5.40
2022-12-12T12:54:40.433Z,5.88
2022-12-12T12:57:45.801Z,5.78
2022-12-12T13:01:00.680Z,6.65
2022-12-12T13:04:09.300Z,5.65
2022-12-12T13:07:19.142Z,5.10
2022-12-12T13:10:24.376Z,4.78
2022-12-12T13:13:30.565Z,4.93
2022-12-12T13:16:34.657Z,6.20
2022-12-12T13:19:40.680Z,4.90
2022-12-12T13:22:52.745Z,6.72
2022-12-12T13:26:01.931Z,4.63
2022-12-12T13:29:12.125Z,5.25
2022-12-12T13:32:48.432Z,4.70
2022-12-12T13:35:54.612Z,5.10
2022-12-12T13:39:00.241Z,6.55
2022-12-12T13:42:04.394Z,6.70
2022-12-12T13:45:35.323Z,5.43
2022-12-12T13:48:47.303Z,6.50
2022-12-12T13:51:49.846Z,8.85
2022-12-12T13:54:55.363Z,8.18
2022-12-12T13:58:07.977Z,7.63
2022-12-12T14:01:34.474Z,6.70
2022-12-12T14:04:44.679Z,8.15
2022-12-12T14:07:50.606Z,5.75
2022-12-12T14:11:00.287Z,5.47
2022-12-12T14:14:20.111Z,7.43
2022-12-12T14:17:25.657Z,7.03
2022-12-12T14:20:33.866Z,6.57
2022-12-12T14:23:37.351Z,7.07
2022-12-12T14:26:50.983Z,7.20
2022-12-12T14:29:53.431Z,6.57
2022-12-12T14:33:04.272Z,8.18
2022-12-12T14:36:26.465Z,7.77
2022-12-12T14:39:49.441Z,7.75
2022-12-12T14:43:16.464Z,7.00
2022-12-12T14:46:20.454Z,7.75
2022-12-12T14:49:22.969Z,7.45
2022-12-12T14:52:27.293Z,9.20
2022-12-12T14:55:29.832Z,9.93
2022-12-12T14:58:40.387Z,7.20
2022-12-12T15:01:45.693Z,10.02
2022-12-12T15:04:51.867Z,9.00
2022-12-12T15:08:00.006Z,8.25
2022-12-12T15:11:02.494Z,11.10
2022-12-12T15:14:05.326Z,11.82
2022-12-12T15:17:13.255Z,12.00
2022-12-12T15:20:19.734Z,9.52
2022-12-12T15:23:24.333Z,9.43
2022-12-12T15:26:30.045Z,7.97
2022-12-12T15:29:33.849Z,9.98
2022-12-12T15:32:37.299Z,9.23
2022-12-12T15:35:39.846Z,8.18
2022-12-12T15:38:44.024Z,9.32
2022-12-12T15:41:46.871Z,11.10
2022-12-12T15:44:51.860Z,9.13
2022-12-12T15:47:56.442Z,10.00
2022-12-12T15:51:01.561Z,9.88
2022-12-12T15:54:06.974Z,9.40
2022-12-12T15:57:16.026Z,11.13
2022-12-12T16:00:31.798Z,9.35
2022-12-12T16:03:35.001Z,8.75
2022-12-12T16:06:39.985Z,8.38
2022-12-12T16:09:58.488Z,8.85
2022-12-12T16:13:03.454Z,11.13
2022-12-12T16:16:41.178Z,11.77
2022-12-12T16:19:47.677Z,11.45
2022-12-12T16:22:51.015Z,12.05
2022-12-12T16:25:55.526Z,8.82
2022-12-12T16:28:57.961Z,10.40
2022-12-12T16:32:00.472Z,10.30
2022-12-12T16:35:03.273Z,8.90
2022-12-12T16:38:13.662Z,11.20
2022-12-12T16:41:19.099Z,11.68
2022-12-12T16:44:21.538Z,10.85
2022-12-12T16:47:25.900Z,12.18
2022-12-12T16:50:28.468Z,9.80
2022-12-12T16:53:31.150Z,9.52
2022-12-12T16:56:35.037Z,13.32
2022-12-12T16:59:38.671Z,9.20
2022-12-12T17:02:41.543Z,8.88
2022-12-12T17:05:45.017Z,10.63
2022-12-12T17:08:47.480Z,9.55
2022-12-12T17:11:51.281Z,9.23
2022-12-12T17:14:53.733Z,9.90
2022-12-12T17:17:57.107Z,9.55
2022-12-12T17:20:59.577Z,9.80
2022-12-12T17:24:02.029Z,8.02
2022-12-12T17:27:05.890Z,11.68
2022-12-12T17:30:09.594Z,7.95
2022-12-12T17:33:17.857Z,9.40
2022-12-12T17:36:20.493Z,8.38
2022-12-12T17:39:23.372Z,9.10
2022-12-12T17:42:27.281Z,7.63
2022-12-12T17:45:29.774Z,10.52
2022-12-12T17:48:35.504Z,10.93
2022-12-12T17:51:38.186Z,8.48
2022-12-12T17:54:40.843Z,7.05
2022-12-12T17:57:44.693Z,7.68
2022-12-12T18:00:47.198Z,9.00
2022-12-12T18:03:50.343Z,8.00
2022-12-12T18:06:52.883Z,8.13
2022-12-12T18:09:55.464Z,8.38
2022-12-12T18:12:59.442Z,7.55
2022-12-12T18:16:02.000Z,6.95
2022-12-12T18:19:05.121Z,5.75
2022-12-12T18:22:07.689Z,6.32
2022-12-12T18:25:10.819Z,5.10
2022-12-12T18:28:14.682Z,5.82
